Terminal Aerodrome Forecast
Issued by NWS

Home | Current Version | Previous Version | Text Only | Print | Product List | Glossary On
Versions: 1 2 3 4 5 6 7 8 9 10 11 12 13 14 15 16 17 18 19 20 21 22 23 24 25 26 27
000
FTUS43 KSGF 221738
TAFBBG
TAF
KBBG 221738Z 2218/2318 33010KT 4SM -RADZ BKN006 OVC015
     FM222000 33010KT P6SM SCT008 OVC015
     FM222300 33009KT P6SM SCT080
     FM230100 32005KT P6SM FEW110
     FM231300 26005KT P6SM FEW250
     FM231700 26010KT P6SM FEW250=

USA.gov is the U.S. government's official web portal to all federal, state and local government web resources and services.